sensor_id;sensor_type;location;lat;lon;timestamp;P1;durP1;ratioP1;P2;durP2;ratioP2
13071;SDS011;6602;58.934;11.166;2023-06-14T00:01:09;6.38;;;3.42;;
13071;SDS011;6602;58.934;11.166;2023-06-14T00:06:14;3.88;;;2.58;;
13071;SDS011;6602;58.934;11.166;2023-06-14T00:11:19;4.30;;;3.40;;
13071;SDS011;6602;58.934;11.166;2023-06-14T00:16:25;6.18;;;3.40;;
13071;SDS011;6602;58.934;11.166;2023-06-14T00:21:26;10.25;;;3.50;;
13071;SDS011;6602;58.934;11.166;2023-06-14T00:26:30;7.72;;;3.55;;
13071;SDS011;6602;58.934;11.166;2023-06-14T00:31:38;6.70;;;3.25;;
13071;SDS011;6602;58.934;11.166;2023-06-14T00:36:39;3.83;;;3.30;;
13071;SDS011;6602;58.934;11.166;2023-06-14T00:41:40;3.28;;;2.97;;
13071;SDS011;6602;58.934;11.166;2023-06-14T00:46:41;6.20;;;3.88;;
13071;SDS011;6602;58.934;11.166;2023-06-14T00:51:42;5.35;;;3.47;;
13071;SDS011;6602;58.934;11.166;2023-06-14T00:56:46;3.67;;;3.30;;
13071;SDS011;6602;58.934;11.166;2023-06-14T01:01:49;5.75;;;3.70;;
13071;SDS011;6602;58.934;11.166;2023-06-14T01:17:46;5.38;;;3.65;;
13071;SDS011;6602;58.934;11.166;2023-06-14T01:22:54;5.25;;;3.25;;
13071;SDS011;6602;58.934;11.166;2023-06-14T01:27:57;3.78;;;3.35;;
13071;SDS011;6602;58.934;11.166;2023-06-14T01:33:02;4.63;;;3.45;;
13071;SDS011;6602;58.934;11.166;2023-06-14T01:38:05;6.03;;;3.45;;
13071;SDS011;6602;58.934;11.166;2023-06-14T01:43:08;7.63;;;3.53;;
13071;SDS011;6602;58.934;11.166;2023-06-14T01:48:13;4.53;;;3.53;;
13071;SDS011;6602;58.934;11.166;2023-06-14T01:53:14;6.70;;;3.60;;
13071;SDS011;6602;58.934;11.166;2023-06-14T01:58:16;5.85;;;3.70;;
13071;SDS011;6602;58.934;11.166;2023-06-14T02:03:17;4.72;;;4.00;;
13071;SDS011;6602;58.934;11.166;2023-06-14T02:08:19;3.72;;;3.40;;
13071;SDS011;6602;58.934;11.166;2023-06-14T02:13:20;4.75;;;3.78;;
13071;SDS011;6602;58.934;11.166;2023-06-14T02:18:24;5.15;;;3.38;;
13071;SDS011;6602;58.934;11.166;2023-06-14T02:23:25;7.47;;;3.47;;
13071;SDS011;6602;58.934;11.166;2023-06-14T02:28:26;5.28;;;3.80;;
13071;SDS011;6602;58.934;11.166;2023-06-14T02:33:27;4.97;;;4.18;;
13071;SDS011;6602;58.934;11.166;2023-06-14T02:38:27;6.68;;;3.78;;
13071;SDS011;6602;58.934;11.166;2023-06-14T02:43:29;8.63;;;4.28;;
13071;SDS011;6602;58.934;11.166;2023-06-14T02:48:30;4.80;;;4.00;;
13071;SDS011;6602;58.934;11.166;2023-06-14T02:53:32;4.80;;;4.05;;
13071;SDS011;6602;58.934;11.166;2023-06-14T02:58:36;6.07;;;4.10;;
13071;SDS011;6602;58.934;11.166;2023-06-14T03:03:37;4.93;;;4.43;;
13071;SDS011;6602;58.934;11.166;2023-06-14T03:08:38;8.75;;;4.57;;
13071;SDS011;6602;58.934;11.166;2023-06-14T03:13:40;4.90;;;4.45;;
13071;SDS011;6602;58.934;11.166;2023-06-14T03:18:42;4.90;;;4.03;;
13071;SDS011;6602;58.934;11.166;2023-06-14T03:23:43;11.80;;;4.68;;
13071;SDS011;6602;58.934;11.166;2023-06-14T03:28:44;4.13;;;3.70;;
13071;SDS011;6602;58.934;11.166;2023-06-14T03:33:50;5.57;;;3.83;;
13071;SDS011;6602;58.934;11.166;2023-06-14T03:38:51;7.95;;;4.00;;
13071;SDS011;6602;58.934;11.166;2023-06-14T03:43:52;7.00;;;4.30;;
13071;SDS011;6602;58.934;11.166;2023-06-14T03:48:53;4.60;;;3.63;;
13071;SDS011;6602;58.934;11.166;2023-06-14T03:53:54;4.72;;;3.92;;
13071;SDS011;6602;58.934;11.166;2023-06-14T03:58:58;6.78;;;3.65;;
13071;SDS011;6602;58.934;11.166;2023-06-14T04:04:01;5.78;;;3.83;;
13071;SDS011;6602;58.934;11.166;2023-06-14T04:09:01;4.32;;;3.60;;
13071;SDS011;6602;58.934;11.166;2023-06-14T04:14:02;6.85;;;3.72;;
13071;SDS011;6602;58.934;11.166;2023-06-14T04:19:08;4.63;;;3.60;;
13071;SDS011;6602;58.934;11.166;2023-06-14T04:24:10;5.75;;;3.60;;
13071;SDS011;6602;58.934;11.166;2023-06-14T04:29:14;4.95;;;3.20;;
13071;SDS011;6602;58.934;11.166;2023-06-14T04:34:16;4.45;;;3.08;;
13071;SDS011;6602;58.934;11.166;2023-06-14T04:39:18;6.18;;;3.15;;
13071;SDS011;6602;58.934;11.166;2023-06-14T04:44:23;5.93;;;3.72;;
13071;SDS011;6602;58.934;11.166;2023-06-14T04:49:30;6.88;;;3.60;;
13071;SDS011;6602;58.934;11.166;2023-06-14T04:54:32;5.57;;;3.33;;
13071;SDS011;6602;58.934;11.166;2023-06-14T04:59:33;3.90;;;3.50;;
13071;SDS011;6602;58.934;11.166;2023-06-14T05:04:38;5.45;;;3.15;;
13071;SDS011;6602;58.934;11.166;2023-06-14T05:09:41;4.25;;;3.20;;
13071;SDS011;6602;58.934;11.166;2023-06-14T05:14:41;4.30;;;2.90;;
13071;SDS011;6602;58.934;11.166;2023-06-14T05:19:44;5.40;;;2.78;;
13071;SDS011;6602;58.934;11.166;2023-06-14T05:24:44;3.97;;;2.97;;
13071;SDS011;6602;58.934;11.166;2023-06-14T05:29:51;4.57;;;3.00;;
13071;SDS011;6602;58.934;11.166;2023-06-14T05:34:55;3.47;;;2.53;;
13071;SDS011;6602;58.934;11.166;2023-06-14T05:39:59;3.50;;;2.50;;
13071;SDS011;6602;58.934;11.166;2023-06-14T05:45:04;4.57;;;2.30;;
13071;SDS011;6602;58.934;11.166;2023-06-14T05:50:06;5.00;;;2.78;;
13071;SDS011;6602;58.934;11.166;2023-06-14T05:55:07;2.40;;;2.20;;
13071;SDS011;6602;58.934;11.166;2023-06-14T06:00:10;3.35;;;2.50;;
13071;SDS011;6602;58.934;11.166;2023-06-14T06:05:11;2.95;;;2.40;;
13071;SDS011;6602;58.934;11.166;2023-06-14T06:10:16;4.05;;;2.50;;
13071;SDS011;6602;58.934;11.166;2023-06-14T06:15:17;2.95;;;2.65;;
13071;SDS011;6602;58.934;11.166;2023-06-14T06:20:18;6.20;;;2.75;;
13071;SDS011;6602;58.934;11.166;2023-06-14T06:25:20;2.95;;;2.65;;
13071;SDS011;6602;58.934;11.166;2023-06-14T06:30:22;6.05;;;2.33;;
13071;SDS011;6602;58.934;11.166;2023-06-14T06:35:25;3.00;;;2.45;;
13071;SDS011;6602;58.934;11.166;2023-06-14T06:40:27;7.00;;;2.25;;
13071;SDS011;6602;58.934;11.166;2023-06-14T06:45:28;5.93;;;2.67;;
13071;SDS011;6602;58.934;11.166;2023-06-14T06:50:30;7.70;;;2.38;;
13071;SDS011;6602;58.934;11.166;2023-06-14T06:55:32;2.75;;;2.50;;
13071;SDS011;6602;58.934;11.166;2023-06-14T07:00:35;2.78;;;2.30;;
13071;SDS011;6602;58.934;11.166;2023-06-14T07:05:37;3.88;;;2.40;;
13071;SDS011;6602;58.934;11.166;2023-06-14T07:10:38;3.30;;;2.58;;
13071;SDS011;6602;58.934;11.166;2023-06-14T07:15:38;6.57;;;2.97;;
13071;SDS011;6602;58.934;11.166;2023-06-14T07:20:41;5.57;;;2.90;;
13071;SDS011;6602;58.934;11.166;2023-06-14T07:25:46;2.22;;;1.98;;
13071;SDS011;6602;58.934;11.166;2023-06-14T07:30:47;4.03;;;2.20;;
13071;SDS011;6602;58.934;11.166;2023-06-14T07:35:51;4.00;;;1.90;;
13071;SDS011;6602;58.934;11.166;2023-06-14T07:41:02;3.80;;;1.90;;
13071;SDS011;6602;58.934;11.166;2023-06-14T07:46:03;2.88;;;2.10;;
13071;SDS011;6602;58.934;11.166;2023-06-14T07:51:08;2.63;;;2.15;;
13071;SDS011;6602;58.934;11.166;2023-06-14T08:02:08;2.90;;;2.00;;
13071;SDS011;6602;58.934;11.166;2023-06-14T08:07:11;2.17;;;1.98;;
13071;SDS011;6602;58.934;11.166;2023-06-14T08:12:13;2.85;;;2.25;;
13071;SDS011;6602;58.934;11.166;2023-06-14T08:17:23;2.05;;;1.88;;
13071;SDS011;6602;58.934;11.166;2023-06-14T08:22:24;3.15;;;1.92;;
13071;SDS011;6602;58.934;11.166;2023-06-14T08:27:25;3.42;;;2.10;;
13071;SDS011;6602;58.934;11.166;2023-06-14T08:32:26;3.67;;;1.88;;
13071;SDS011;6602;58.934;11.166;2023-06-14T08:37:54;3.58;;;2.10;;
13071;SDS011;6602;58.934;11.166;2023-06-14T08:42:57;6.95;;;2.17;;
13071;SDS011;6602;58.934;11.166;2023-06-14T08:48:00;1.70;;;1.60;;
13071;SDS011;6602;58.934;11.166;2023-06-14T08:53:02;2.20;;;1.80;;
13071;SDS011;6602;58.934;11.166;2023-06-14T08:58:03;6.60;;;2.05;;
13071;SDS011;6602;58.934;11.166;2023-06-14T09:03:05;4.53;;;2.38;;
13071;SDS011;6602;58.934;11.166;2023-06-14T09:08:18;3.78;;;1.85;;
13071;SDS011;6602;58.934;11.166;2023-06-14T09:13:22;5.93;;;1.90;;
13071;SDS011;6602;58.934;11.166;2023-06-14T09:18:33;3.30;;;2.13;;
13071;SDS011;6602;58.934;11.166;2023-06-14T09:23:36;3.60;;;1.83;;
13071;SDS011;6602;58.934;11.166;2023-06-14T09:28:42;4.32;;;1.77;;
13071;SDS011;6602;58.934;11.166;2023-06-14T09:33:48;5.22;;;2.00;;
13071;SDS011;6602;58.934;11.166;2023-06-14T09:39:00;3.47;;;2.10;;
13071;SDS011;6602;58.934;11.166;2023-06-14T09:44:06;3.67;;;2.00;;
13071;SDS011;6602;58.934;11.166;2023-06-14T09:49:12;4.97;;;2.00;;
13071;SDS011;6602;58.934;11.166;2023-06-14T09:54:14;5.78;;;1.98;;
13071;SDS011;6602;58.934;11.166;2023-06-14T09:59:19;2.17;;;1.98;;
13071;SDS011;6602;58.934;11.166;2023-06-14T10:04:29;4.95;;;1.98;;
13071;SDS011;6602;58.934;11.166;2023-06-14T10:09:31;4.18;;;1.98;;
13071;SDS011;6602;58.934;11.166;2023-06-14T10:14:36;2.65;;;1.95;;
13071;SDS011;6602;58.934;11.166;2023-06-14T10:24:48;4.40;;;2.35;;
13071;SDS011;6602;58.934;11.166;2023-06-14T10:30:14;4.80;;;2.30;;
13071;SDS011;6602;58.934;11.166;2023-06-14T10:35:16;5.93;;;2.10;;
13071;SDS011;6602;58.934;11.166;2023-06-14T10:40:30;3.58;;;1.90;;
13071;SDS011;6602;58.934;11.166;2023-06-14T10:45:53;3.70;;;2.30;;
13071;SDS011;6602;58.934;11.166;2023-06-14T10:51:22;4.18;;;2.17;;
13071;SDS011;6602;58.934;11.166;2023-06-14T10:56:30;3.17;;;2.20;;
13071;SDS011;6602;58.934;11.166;2023-06-14T11:01:37;4.60;;;2.45;;
13071;SDS011;6602;58.934;11.166;2023-06-14T11:06:47;3.67;;;2.28;;
13071;SDS011;6602;58.934;11.166;2023-06-14T11:11:54;3.50;;;2.20;;
13071;SDS011;6602;58.934;11.166;2023-06-14T11:16:57;3.92;;;2.40;;
13071;SDS011;6602;58.934;11.166;2023-06-14T11:21:59;6.93;;;2.40;;
13071;SDS011;6602;58.934;11.166;2023-06-14T11:27:00;3.33;;;2.15;;
13071;SDS011;6602;58.934;11.166;2023-06-14T11:32:00;2.55;;;2.17;;
13071;SDS011;6602;58.934;11.166;2023-06-14T11:37:02;7.32;;;2.30;;
13071;SDS011;6602;58.934;11.166;2023-06-14T11:42:03;3.80;;;2.10;;
13071;SDS011;6602;58.934;11.166;2023-06-14T11:47:07;3.42;;;2.00;;
13071;SDS011;6602;58.934;11.166;2023-06-14T11:52:10;4.78;;;2.50;;
13071;SDS011;6602;58.934;11.166;2023-06-14T11:57:11;5.70;;;2.22;;
13071;SDS011;6602;58.934;11.166;2023-06-14T12:02:15;5.80;;;1.92;;
13071;SDS011;6602;58.934;11.166;2023-06-14T12:07:17;3.47;;;1.73;;
13071;SDS011;6602;58.934;11.166;2023-06-14T12:12:24;3.67;;;2.20;;
13071;SDS011;6602;58.934;11.166;2023-06-14T12:17:34;3.80;;;2.17;;
13071;SDS011;6602;58.934;11.166;2023-06-14T12:22:46;3.63;;;2.28;;
13071;SDS011;6602;58.934;11.166;2023-06-14T12:27:50;5.53;;;2.30;;
13071;SDS011;6602;58.934;11.166;2023-06-14T12:32:53;2.63;;;2.13;;
13071;SDS011;6602;58.934;11.166;2023-06-14T12:37:54;2.85;;;2.10;;
13071;SDS011;6602;58.934;11.166;2023-06-14T12:42:58;5.25;;;3.15;;
13071;SDS011;6602;58.934;11.166;2023-06-14T12:48:01;2.40;;;1.92;;
13071;SDS011;6602;58.934;11.166;2023-06-14T12:53:06;3.25;;;2.35;;
13071;SDS011;6602;58.934;11.166;2023-06-14T12:58:15;2.55;;;2.22;;
13071;SDS011;6602;58.934;11.166;2023-06-14T13:03:17;3.20;;;1.98;;
13071;SDS011;6602;58.934;11.166;2023-06-14T13:08:19;4.50;;;2.28;;
13071;SDS011;6602;58.934;11.166;2023-06-14T13:13:20;2.88;;;2.28;;
13071;SDS011;6602;58.934;11.166;2023-06-14T13:18:24;3.17;;;2.40;;
13071;SDS011;6602;58.934;11.166;2023-06-14T13:23:26;2.15;;;1.90;;
13071;SDS011;6602;58.934;11.166;2023-06-14T13:28:27;2.95;;;2.10;;
13071;SDS011;6602;58.934;11.166;2023-06-14T13:33:34;4.18;;;2.35;;
13071;SDS011;6602;58.934;11.166;2023-06-14T13:38:35;2.83;;;2.30;;
13071;SDS011;6602;58.934;11.166;2023-06-14T13:43:37;7.82;;;2.63;;
13071;SDS011;6602;58.934;11.166;2023-06-14T13:48:38;1.90;;;1.75;;
13071;SDS011;6602;58.934;11.166;2023-06-14T13:53:39;4.35;;;1.90;;
13071;SDS011;6602;58.934;11.166;2023-06-14T13:58:40;3.13;;;1.77;;
13071;SDS011;6602;58.934;11.166;2023-06-14T14:03:45;4.45;;;1.90;;
13071;SDS011;6602;58.934;11.166;2023-06-14T14:08:48;3.67;;;1.80;;
13071;SDS011;6602;58.934;11.166;2023-06-14T14:13:49;3.20;;;1.90;;
13071;SDS011;6602;58.934;11.166;2023-06-14T14:18:50;6.20;;;1.90;;
13071;SDS011;6602;58.934;11.166;2023-06-14T14:23:54;3.58;;;1.95;;
13071;SDS011;6602;58.934;11.166;2023-06-14T14:28:55;3.83;;;2.10;;
13071;SDS011;6602;58.934;11.166;2023-06-14T14:33:57;3.17;;;2.05;;
13071;SDS011;6602;58.934;11.166;2023-06-14T14:38:58;5.07;;;1.80;;
13071;SDS011;6602;58.934;11.166;2023-06-14T14:43:59;6.70;;;1.95;;
13071;SDS011;6602;58.934;11.166;2023-06-14T14:49:02;5.90;;;2.10;;
13071;SDS011;6602;58.934;11.166;2023-06-14T14:54:05;3.33;;;2.10;;
13071;SDS011;6602;58.934;11.166;2023-06-14T14:59:06;3.72;;;1.75;;
13071;SDS011;6602;58.934;11.166;2023-06-14T15:04:16;5.50;;;2.15;;
13071;SDS011;6602;58.934;11.166;2023-06-14T15:09:17;3.33;;;2.22;;
13071;SDS011;6602;58.934;11.166;2023-06-14T15:14:18;5.07;;;2.17;;
13071;SDS011;6602;58.934;11.166;2023-06-14T15:19:26;2.20;;;1.85;;
13071;SDS011;6602;58.934;11.166;2023-06-14T15:24:28;3.60;;;1.92;;
13071;SDS011;6602;58.934;11.166;2023-06-14T15:29:31;2.40;;;2.15;;
13071;SDS011;6602;58.934;11.166;2023-06-14T15:34:32;4.53;;;1.83;;
13071;SDS011;6602;58.934;11.166;2023-06-14T15:39:33;6.30;;;1.83;;
13071;SDS011;6602;58.934;11.166;2023-06-14T15:44:34;3.90;;;2.15;;
13071;SDS011;6602;58.934;11.166;2023-06-14T15:49:36;3.47;;;2.58;;
13071;SDS011;6602;58.934;11.166;2023-06-14T15:54:40;2.42;;;2.10;;
13071;SDS011;6602;58.934;11.166;2023-06-14T15:59:41;2.55;;;2.35;;
13071;SDS011;6602;58.934;11.166;2023-06-14T16:04:44;3.33;;;2.10;;
13071;SDS011;6602;58.934;11.166;2023-06-14T16:09:45;4.63;;;2.63;;
13071;SDS011;6602;58.934;11.166;2023-06-14T16:14:46;4.15;;;2.88;;
13071;SDS011;6602;58.934;11.166;2023-06-14T16:19:47;4.75;;;2.55;;
13071;SDS011;6602;58.934;11.166;2023-06-14T16:24:50;3.95;;;3.03;;
13071;SDS011;6602;58.934;11.166;2023-06-14T16:29:51;2.40;;;2.20;;
13071;SDS011;6602;58.934;11.166;2023-06-14T16:34:52;3.88;;;2.50;;
13071;SDS011;6602;58.934;11.166;2023-06-14T16:39:55;6.60;;;2.78;;
13071;SDS011;6602;58.934;11.166;2023-06-14T16:44:58;2.78;;;2.47;;
13071;SDS011;6602;58.934;11.166;2023-06-14T16:50:00;3.08;;;2.50;;
13071;SDS011;6602;58.934;11.166;2023-06-14T16:55:03;9.25;;;3.40;;
13071;SDS011;6602;58.934;11.166;2023-06-14T17:00:05;6.55;;;2.63;;
13071;SDS011;6602;58.934;11.166;2023-06-14T17:05:06;3.92;;;2.80;;
13071;SDS011;6602;58.934;11.166;2023-06-14T17:10:08;3.47;;;2.75;;
13071;SDS011;6602;58.934;11.166;2023-06-14T17:15:09;6.10;;;2.85;;
13071;SDS011;6602;58.934;11.166;2023-06-14T17:20:10;7.10;;;2.80;;
13071;SDS011;6602;58.934;11.166;2023-06-14T17:25:11;4.72;;;2.78;;
13071;SDS011;6602;58.934;11.166;2023-06-14T17:30:16;8.38;;;3.17;;
13071;SDS011;6602;58.934;11.166;2023-06-14T17:35:17;4.85;;;2.53;;
13071;SDS011;6602;58.934;11.166;2023-06-14T17:40:17;5.05;;;3.00;;
13071;SDS011;6602;58.934;11.166;2023-06-14T17:45:19;4.55;;;3.05;;
13071;SDS011;6602;58.934;11.166;2023-06-14T17:50:21;4.55;;;2.97;;
13071;SDS011;6602;58.934;11.166;2023-06-14T17:55:23;3.47;;;2.83;;
13071;SDS011;6602;58.934;11.166;2023-06-14T18:00:24;5.32;;;2.83;;
13071;SDS011;6602;58.934;11.166;2023-06-14T18:05:25;5.15;;;2.75;;
13071;SDS011;6602;58.934;11.166;2023-06-14T18:10:27;7.00;;;3.03;;
13071;SDS011;6602;58.934;11.166;2023-06-14T18:15:28;4.45;;;2.80;;
13071;SDS011;6602;58.934;11.166;2023-06-14T18:20:33;3.85;;;2.60;;
13071;SDS011;6602;58.934;11.166;2023-06-14T18:25:37;2.97;;;2.67;;
13071;SDS011;6602;58.934;11.166;2023-06-14T18:30:39;2.95;;;2.50;;
13071;SDS011;6602;58.934;11.166;2023-06-14T18:35:43;3.97;;;2.63;;
13071;SDS011;6602;58.934;11.166;2023-06-14T18:40:47;8.90;;;3.13;;
13071;SDS011;6602;58.934;11.166;2023-06-14T18:45:51;7.72;;;2.80;;
13071;SDS011;6602;58.934;11.166;2023-06-14T18:50:53;3.88;;;2.30;;
13071;SDS011;6602;58.934;11.166;2023-06-14T18:55:54;3.10;;;2.40;;
13071;SDS011;6602;58.934;11.166;2023-06-14T19:00:55;2.70;;;2.30;;
13071;SDS011;6602;58.934;11.166;2023-06-14T19:05:56;2.63;;;2.15;;
13071;SDS011;6602;58.934;11.166;2023-06-14T19:10:58;3.08;;;2.10;;
13071;SDS011;6602;58.934;11.166;2023-06-14T19:16:00;5.18;;;2.45;;
13071;SDS011;6602;58.934;11.166;2023-06-14T19:21:01;2.85;;;2.30;;
13071;SDS011;6602;58.934;11.166;2023-06-14T19:26:08;2.92;;;2.40;;
13071;SDS011;6602;58.934;11.166;2023-06-14T19:31:12;5.93;;;2.67;;
13071;SDS011;6602;58.934;11.166;2023-06-14T19:36:19;6.18;;;5.00;;
13071;SDS011;6602;58.934;11.166;2023-06-14T19:41:26;6.25;;;2.28;;
13071;SDS011;6602;58.934;11.166;2023-06-14T19:46:36;4.88;;;2.20;;
13071;SDS011;6602;58.934;11.166;2023-06-14T19:51:39;3.05;;;2.55;;
13071;SDS011;6602;58.934;11.166;2023-06-14T19:56:43;6.20;;;2.55;;
13071;SDS011;6602;58.934;11.166;2023-06-14T20:01:48;2.75;;;2.47;;
13071;SDS011;6602;58.934;11.166;2023-06-14T20:06:49;6.10;;;2.70;;
13071;SDS011;6602;58.934;11.166;2023-06-14T20:11:58;3.28;;;2.63;;
13071;SDS011;6602;58.934;11.166;2023-06-14T20:16:59;5.10;;;2.47;;
13071;SDS011;6602;58.934;11.166;2023-06-14T20:22:03;3.88;;;2.53;;
13071;SDS011;6602;58.934;11.166;2023-06-14T20:27:04;3.17;;;2.33;;
13071;SDS011;6602;58.934;11.166;2023-06-14T20:32:07;3.80;;;2.67;;
13071;SDS011;6602;58.934;11.166;2023-06-14T20:37:08;3.00;;;2.55;;
13071;SDS011;6602;58.934;11.166;2023-06-14T20:42:15;4.50;;;2.70;;
13071;SDS011;6602;58.934;11.166;2023-06-14T20:47:16;4.95;;;2.30;;
13071;SDS011;6602;58.934;11.166;2023-06-14T20:52:17;3.25;;;2.78;;
13071;SDS011;6602;58.934;11.166;2023-06-14T20:57:25;4.47;;;2.95;;
13071;SDS011;6602;58.934;11.166;2023-06-14T21:02:26;4.30;;;2.88;;
13071;SDS011;6602;58.934;11.166;2023-06-14T21:07:28;2.72;;;2.40;;
13071;SDS011;6602;58.934;11.166;2023-06-14T21:12:29;4.35;;;2.30;;
13071;SDS011;6602;58.934;11.166;2023-06-14T21:17:30;2.65;;;2.45;;
13071;SDS011;6602;58.934;11.166;2023-06-14T21:22:35;2.83;;;2.50;;
13071;SDS011;6602;58.934;11.166;2023-06-14T21:27:37;7.47;;;2.72;;
13071;SDS011;6602;58.934;11.166;2023-06-14T21:32:37;4.15;;;3.15;;
13071;SDS011;6602;58.934;11.166;2023-06-14T21:37:40;4.82;;;2.80;;
13071;SDS011;6602;58.934;11.166;2023-06-14T21:42:41;3.92;;;2.70;;
13071;SDS011;6602;58.934;11.166;2023-06-14T21:47:42;3.50;;;2.92;;
13071;SDS011;6602;58.934;11.166;2023-06-14T21:52:44;3.60;;;2.90;;
13071;SDS011;6602;58.934;11.166;2023-06-14T21:57:51;4.95;;;3.05;;
13071;SDS011;6602;58.934;11.166;2023-06-14T22:02:52;3.20;;;2.70;;
13071;SDS011;6602;58.934;11.166;2023-06-14T22:07:56;3.63;;;2.50;;
13071;SDS011;6602;58.934;11.166;2023-06-14T22:13:00;4.07;;;2.72;;
13071;SDS011;6602;58.934;11.166;2023-06-14T22:18:02;5.05;;;3.30;;
13071;SDS011;6602;58.934;11.166;2023-06-14T22:23:03;4.25;;;3.40;;
13071;SDS011;6602;58.934;11.166;2023-06-14T22:28:04;3.75;;;3.30;;
13071;SDS011;6602;58.934;11.166;2023-06-14T22:33:04;4.15;;;3.53;;
13071;SDS011;6602;58.934;11.166;2023-06-14T22:38:05;7.30;;;3.65;;
13071;SDS011;6602;58.934;11.166;2023-06-14T22:43:08;4.15;;;3.70;;
13071;SDS011;6602;58.934;11.166;2023-06-14T22:48:08;7.40;;;4.07;;
13071;SDS011;6602;58.934;11.166;2023-06-14T22:53:09;8.35;;;3.75;;
13071;SDS011;6602;58.934;11.166;2023-06-14T22:58:10;4.10;;;3.70;;
13071;SDS011;6602;58.934;11.166;2023-06-14T23:03:15;5.07;;;3.33;;
13071;SDS011;6602;58.934;11.166;2023-06-14T23:08:17;6.68;;;4.22;;
13071;SDS011;6602;58.934;11.166;2023-06-14T23:13:18;4.35;;;3.75;;
13071;SDS011;6602;58.934;11.166;2023-06-14T23:18:18;5.80;;;3.50;;
13071;SDS011;6602;58.934;11.166;2023-06-14T23:23:19;4.30;;;3.90;;
13071;SDS011;6602;58.934;11.166;2023-06-14T23:28:20;4.32;;;3.47;;
13071;SDS011;6602;58.934;11.166;2023-06-14T23:33:33;6.63;;;3.65;;
13071;SDS011;6602;58.934;11.166;2023-06-14T23:38:35;4.78;;;3.80;;
13071;SDS011;6602;58.934;11.166;2023-06-14T23:43:42;4.68;;;4.18;;
13071;SDS011;6602;58.934;11.166;2023-06-14T23:48:43;7.78;;;3.60;;
13071;SDS011;6602;58.934;11.166;2023-06-14T23:53:44;4.53;;;3.50;;
13071;SDS011;6602;58.934;11.166;2023-06-14T23:58:48;7.22;;;4.60;;
